sensor_id;sensor_type;location;lat;lon;timestamp;P1;durP1;ratioP1;P2;durP2;ratioP2
78228;SDS011;74448;49.082;9.152;2023-12-20T00:00:27;21.13;;;8.40;;
78228;SDS011;74448;49.082;9.152;2023-12-20T00:02:54;13.63;;;8.32;;
78228;SDS011;74448;49.082;9.152;2023-12-20T00:05:20;21.98;;;8.32;;
78228;SDS011;74448;49.082;9.152;2023-12-20T00:07:47;21.33;;;8.57;;
78228;SDS011;74448;49.082;9.152;2023-12-20T00:10:14;23.35;;;8.85;;
78228;SDS011;74448;49.082;9.152;2023-12-20T00:15:07;14.30;;;8.20;;
78228;SDS011;74448;49.082;9.152;2023-12-20T00:17:34;18.60;;;8.63;;
78228;SDS011;74448;49.082;9.152;2023-12-20T00:20:01;13.93;;;7.70;;
78228;SDS011;74448;49.082;9.152;2023-12-20T00:22:28;14.40;;;8.15;;
78228;SDS011;74448;49.082;9.152;2023-12-20T00:24:54;16.65;;;7.90;;
78228;SDS011;74448;49.082;9.152;2023-12-20T00:27:21;11.77;;;7.22;;
78228;SDS011;74448;49.082;9.152;2023-12-20T00:29:47;15.75;;;8.00;;
78228;SDS011;74448;49.082;9.152;2023-12-20T00:32:16;14.75;;;8.02;;
78228;SDS011;74448;49.082;9.152;2023-12-20T00:34:43;16.40;;;8.50;;
78228;SDS011;74448;49.082;9.152;2023-12-20T00:39:36;16.92;;;7.55;;
78228;SDS011;74448;49.082;9.152;2023-12-20T00:42:03;12.18;;;6.95;;
78228;SDS011;74448;49.082;9.152;2023-12-20T00:44:29;13.38;;;7.07;;
78228;SDS011;74448;49.082;9.152;2023-12-20T00:46:57;13.77;;;7.15;;
78228;SDS011;74448;49.082;9.152;2023-12-20T00:49:23;15.68;;;7.35;;
78228;SDS011;74448;49.082;9.152;2023-12-20T00:51:51;11.35;;;6.25;;
78228;SDS011;74448;49.082;9.152;2023-12-20T00:54:19;11.32;;;6.32;;
78228;SDS011;74448;49.082;9.152;2023-12-20T00:56:45;13.48;;;6.25;;
78228;SDS011;74448;49.082;9.152;2023-12-20T00:59:12;11.48;;;6.60;;
78228;SDS011;74448;49.082;9.152;2023-12-20T01:01:38;12.80;;;6.03;;
78228;SDS011;74448;49.082;9.152;2023-12-20T01:04:05;10.18;;;6.03;;
78228;SDS011;74448;49.082;9.152;2023-12-20T01:06:32;10.90;;;6.00;;
78228;SDS011;74448;49.082;9.152;2023-12-20T01:08:58;17.60;;;6.03;;
78228;SDS011;74448;49.082;9.152;2023-12-20T01:11:25;11.63;;;6.03;;
78228;SDS011;74448;49.082;9.152;2023-12-20T01:13:52;7.90;;;4.95;;
78228;SDS011;74448;49.082;9.152;2023-12-20T01:16:18;8.38;;;5.05;;
78228;SDS011;74448;49.082;9.152;2023-12-20T01:18:45;8.73;;;5.05;;
78228;SDS011;74448;49.082;9.152;2023-12-20T01:21:12;10.32;;;5.38;;
78228;SDS011;74448;49.082;9.152;2023-12-20T01:23:38;10.27;;;5.35;;
78228;SDS011;74448;49.082;9.152;2023-12-20T01:26:05;8.52;;;4.80;;
78228;SDS011;74448;49.082;9.152;2023-12-20T01:28:32;8.27;;;5.20;;
78228;SDS011;74448;49.082;9.152;2023-12-20T01:30:58;10.57;;;5.20;;
78228;SDS011;74448;49.082;9.152;2023-12-20T01:33:25;8.35;;;4.75;;
78228;SDS011;74448;49.082;9.152;2023-12-20T01:35:51;8.25;;;4.70;;
78228;SDS011;74448;49.082;9.152;2023-12-20T01:38:18;9.52;;;4.72;;
78228;SDS011;74448;49.082;9.152;2023-12-20T01:40:45;10.85;;;4.63;;
78228;SDS011;74448;49.082;9.152;2023-12-20T01:45:39;8.88;;;4.35;;
78228;SDS011;74448;49.082;9.152;2023-12-20T01:48:05;8.98;;;4.35;;
78228;SDS011;74448;49.082;9.152;2023-12-20T01:50:35;7.60;;;4.05;;
78228;SDS011;74448;49.082;9.152;2023-12-20T01:53:03;7.55;;;4.38;;
78228;SDS011;74448;49.082;9.152;2023-12-20T01:55:33;7.40;;;4.68;;
78228;SDS011;74448;49.082;9.152;2023-12-20T01:58:02;8.30;;;4.20;;
78228;SDS011;74448;49.082;9.152;2023-12-20T02:00:30;6.93;;;3.65;;
78228;SDS011;74448;49.082;9.152;2023-12-20T02:02:57;9.07;;;4.05;;
78228;SDS011;74448;49.082;9.152;2023-12-20T02:05:27;9.57;;;4.00;;
78228;SDS011;74448;49.082;9.152;2023-12-20T02:07:54;7.65;;;3.70;;
78228;SDS011;74448;49.082;9.152;2023-12-20T02:12:47;7.35;;;3.30;;
78228;SDS011;74448;49.082;9.152;2023-12-20T02:15:14;7.22;;;3.55;;
78228;SDS011;74448;49.082;9.152;2023-12-20T02:17:41;7.55;;;4.28;;
78228;SDS011;74448;49.082;9.152;2023-12-20T02:20:08;6.32;;;3.30;;
78228;SDS011;74448;49.082;9.152;2023-12-20T02:22:35;6.70;;;3.17;;
78228;SDS011;74448;49.082;9.152;2023-12-20T02:25:02;5.97;;;3.08;;
78228;SDS011;74448;49.082;9.152;2023-12-20T02:27:29;5.70;;;3.03;;
78228;SDS011;74448;49.082;9.152;2023-12-20T02:29:56;5.38;;;3.00;;
78228;SDS011;74448;49.082;9.152;2023-12-20T02:32:22;6.63;;;3.30;;
78228;SDS011;74448;49.082;9.152;2023-12-20T02:34:52;10.30;;;3.60;;
78228;SDS011;74448;49.082;9.152;2023-12-20T02:37:20;5.63;;;3.03;;
78228;SDS011;74448;49.082;9.152;2023-12-20T02:39:47;4.75;;;2.53;;
78228;SDS011;74448;49.082;9.152;2023-12-20T02:42:14;6.10;;;3.08;;
78228;SDS011;74448;49.082;9.152;2023-12-20T02:44:40;5.95;;;2.88;;
78228;SDS011;74448;49.082;9.152;2023-12-20T02:47:07;3.85;;;2.75;;
78228;SDS011;74448;49.082;9.152;2023-12-20T02:49:33;4.80;;;2.88;;
78228;SDS011;74448;49.082;9.152;2023-12-20T02:52:00;10.32;;;2.65;;
78228;SDS011;74448;49.082;9.152;2023-12-20T02:54:26;6.10;;;3.28;;
78228;SDS011;74448;49.082;9.152;2023-12-20T02:56:53;7.88;;;3.65;;
78228;SDS011;74448;49.082;9.152;2023-12-20T02:59:19;5.97;;;2.38;;
78228;SDS011;74448;49.082;9.152;2023-12-20T03:01:46;4.13;;;2.80;;
78228;SDS011;74448;49.082;9.152;2023-12-20T03:04:13;5.50;;;2.60;;
78228;SDS011;74448;49.082;9.152;2023-12-20T03:09:06;4.07;;;2.00;;
78228;SDS011;74448;49.082;9.152;2023-12-20T03:11:33;4.70;;;2.15;;
78228;SDS011;74448;49.082;9.152;2023-12-20T03:14:00;3.58;;;2.05;;
78228;SDS011;74448;49.082;9.152;2023-12-20T03:16:26;2.83;;;2.03;;
78228;SDS011;74448;49.082;9.152;2023-12-20T03:18:53;3.80;;;2.22;;
78228;SDS011;74448;49.082;9.152;2023-12-20T03:21:19;6.53;;;2.30;;
78228;SDS011;74448;49.082;9.152;2023-12-20T03:23:46;10.20;;;2.00;;
78228;SDS011;74448;49.082;9.152;2023-12-20T03:26:13;4.75;;;2.40;;
78228;SDS011;74448;49.082;9.152;2023-12-20T03:28:40;5.05;;;2.03;;
78228;SDS011;74448;49.082;9.152;2023-12-20T03:31:07;4.95;;;2.60;;
78228;SDS011;74448;49.082;9.152;2023-12-20T03:33:33;2.35;;;1.65;;
78228;SDS011;74448;49.082;9.152;2023-12-20T03:36:00;4.60;;;2.33;;
78228;SDS011;74448;49.082;9.152;2023-12-20T03:38:26;5.57;;;2.28;;
78228;SDS011;74448;49.082;9.152;2023-12-20T03:40:53;4.65;;;1.80;;
78228;SDS011;74448;49.082;9.152;2023-12-20T03:43:20;3.72;;;1.92;;
78228;SDS011;74448;49.082;9.152;2023-12-20T03:45:47;5.10;;;2.10;;
78228;SDS011;74448;49.082;9.152;2023-12-20T03:48:13;2.45;;;1.70;;
78228;SDS011;74448;49.082;9.152;2023-12-20T03:50:40;3.50;;;2.10;;
78228;SDS011;74448;49.082;9.152;2023-12-20T03:53:07;3.92;;;1.98;;
78228;SDS011;74448;49.082;9.152;2023-12-20T03:55:34;5.78;;;2.05;;
78228;SDS011;74448;49.082;9.152;2023-12-20T03:58:00;3.95;;;2.30;;
78228;SDS011;74448;49.082;9.152;2023-12-20T04:00:27;3.25;;;1.92;;
78228;SDS011;74448;49.082;9.152;2023-12-20T04:02:53;3.17;;;2.10;;
78228;SDS011;74448;49.082;9.152;2023-12-20T04:05:20;3.30;;;2.15;;
78228;SDS011;74448;49.082;9.152;2023-12-20T04:07:47;2.85;;;1.50;;
78228;SDS011;74448;49.082;9.152;2023-12-20T04:10:14;4.05;;;2.03;;
78228;SDS011;74448;49.082;9.152;2023-12-20T04:12:40;3.97;;;1.95;;
78228;SDS011;74448;49.082;9.152;2023-12-20T04:15:07;4.70;;;1.77;;
78228;SDS011;74448;49.082;9.152;2023-12-20T04:17:36;3.15;;;1.95;;
78228;SDS011;74448;49.082;9.152;2023-12-20T04:20:03;2.88;;;1.42;;
78228;SDS011;74448;49.082;9.152;2023-12-20T04:22:30;5.30;;;1.92;;
78228;SDS011;74448;49.082;9.152;2023-12-20T04:24:57;5.20;;;1.70;;
78228;SDS011;74448;49.082;9.152;2023-12-20T04:27:24;3.08;;;1.73;;
78228;SDS011;74448;49.082;9.152;2023-12-20T04:29:50;2.80;;;1.75;;
78228;SDS011;74448;49.082;9.152;2023-12-20T04:32:17;3.35;;;1.80;;
78228;SDS011;74448;49.082;9.152;2023-12-20T04:34:43;2.80;;;1.73;;
78228;SDS011;74448;49.082;9.152;2023-12-20T04:37:10;4.13;;;1.75;;
78228;SDS011;74448;49.082;9.152;2023-12-20T04:39:36;3.15;;;1.70;;
78228;SDS011;74448;49.082;9.152;2023-12-20T04:42:03;3.40;;;1.55;;
78228;SDS011;74448;49.082;9.152;2023-12-20T04:46:56;2.65;;;1.52;;
78228;SDS011;74448;49.082;9.152;2023-12-20T04:49:23;2.47;;;1.63;;
78228;SDS011;74448;49.082;9.152;2023-12-20T04:51:50;3.10;;;1.75;;
78228;SDS011;74448;49.082;9.152;2023-12-20T04:54:17;3.75;;;1.65;;
78228;SDS011;74448;49.082;9.152;2023-12-20T04:56:43;3.80;;;2.00;;
78228;SDS011;74448;49.082;9.152;2023-12-20T04:59:10;4.20;;;2.20;;
78228;SDS011;74448;49.082;9.152;2023-12-20T05:01:36;3.03;;;1.58;;
78228;SDS011;74448;49.082;9.152;2023-12-20T05:04:03;4.07;;;1.73;;
78228;SDS011;74448;49.082;9.152;2023-12-20T05:06:30;2.03;;;1.08;;
78228;SDS011;74448;49.082;9.152;2023-12-20T05:08:57;3.60;;;1.50;;
78228;SDS011;74448;49.082;9.152;2023-12-20T05:11:23;2.60;;;1.30;;
78228;SDS011;74448;49.082;9.152;2023-12-20T05:13:50;4.00;;;1.60;;
78228;SDS011;74448;49.082;9.152;2023-12-20T05:16:17;3.50;;;1.85;;
78228;SDS011;74448;49.082;9.152;2023-12-20T05:18:47;2.30;;;1.40;;
78228;SDS011;74448;49.082;9.152;2023-12-20T05:21:16;4.13;;;1.77;;
78228;SDS011;74448;49.082;9.152;2023-12-20T05:23:42;2.22;;;1.35;;
78228;SDS011;74448;49.082;9.152;2023-12-20T05:26:09;2.47;;;1.45;;
78228;SDS011;74448;49.082;9.152;2023-12-20T05:28:35;2.45;;;1.42;;
78228;SDS011;74448;49.082;9.152;2023-12-20T05:31:02;2.72;;;1.23;;
78228;SDS011;74448;49.082;9.152;2023-12-20T05:33:29;2.30;;;1.33;;
78228;SDS011;74448;49.082;9.152;2023-12-20T05:35:56;2.17;;;1.17;;
78228;SDS011;74448;49.082;9.152;2023-12-20T05:38:22;2.83;;;1.42;;
78228;SDS011;74448;49.082;9.152;2023-12-20T05:40:49;2.05;;;1.15;;
78228;SDS011;74448;49.082;9.152;2023-12-20T05:43:16;2.92;;;1.63;;
78228;SDS011;74448;49.082;9.152;2023-12-20T05:45:42;2.25;;;1.40;;
78228;SDS011;74448;49.082;9.152;2023-12-20T05:48:09;1.73;;;1.02;;
78228;SDS011;74448;49.082;9.152;2023-12-20T05:53:03;2.90;;;1.80;;
78228;SDS011;74448;49.082;9.152;2023-12-20T05:55:29;3.53;;;1.23;;
78228;SDS011;74448;49.082;9.152;2023-12-20T05:57:56;1.70;;;1.00;;
78228;SDS011;74448;49.082;9.152;2023-12-20T06:00:23;3.42;;;1.58;;
78228;SDS011;74448;49.082;9.152;2023-12-20T06:02:49;1.75;;;1.17;;
78228;SDS011;74448;49.082;9.152;2023-12-20T06:05:16;2.38;;;1.33;;
78228;SDS011;74448;49.082;9.152;2023-12-20T06:07:43;2.33;;;1.00;;
78228;SDS011;74448;49.082;9.152;2023-12-20T06:10:11;2.13;;;1.20;;
78228;SDS011;74448;49.082;9.152;2023-12-20T06:15:04;2.42;;;1.17;;
78228;SDS011;74448;49.082;9.152;2023-12-20T06:17:32;3.90;;;1.25;;
78228;SDS011;74448;49.082;9.152;2023-12-20T06:19:58;2.30;;;1.20;;
78228;SDS011;74448;49.082;9.152;2023-12-20T06:22:25;2.55;;;1.25;;
78228;SDS011;74448;49.082;9.152;2023-12-20T06:24:52;2.15;;;1.23;;
78228;SDS011;74448;49.082;9.152;2023-12-20T06:27:19;2.47;;;1.33;;
78228;SDS011;74448;49.082;9.152;2023-12-20T06:29:45;3.85;;;1.17;;
78228;SDS011;74448;49.082;9.152;2023-12-20T06:32:12;2.63;;;1.33;;
78228;SDS011;74448;49.082;9.152;2023-12-20T06:34:39;1.75;;;0.90;;
78228;SDS011;74448;49.082;9.152;2023-12-20T06:37:05;2.30;;;1.20;;
78228;SDS011;74448;49.082;9.152;2023-12-20T06:39:32;3.30;;;1.33;;
78228;SDS011;74448;49.082;9.152;2023-12-20T06:42:00;1.90;;;1.25;;
78228;SDS011;74448;49.082;9.152;2023-12-20T06:44:26;4.70;;;1.42;;
78228;SDS011;74448;49.082;9.152;2023-12-20T06:46:53;2.85;;;1.40;;
78228;SDS011;74448;49.082;9.152;2023-12-20T06:49:20;3.55;;;1.60;;
78228;SDS011;74448;49.082;9.152;2023-12-20T06:51:47;2.17;;;1.40;;
78228;SDS011;74448;49.082;9.152;2023-12-20T06:54:13;2.00;;;1.15;;
78228;SDS011;74448;49.082;9.152;2023-12-20T06:56:40;3.53;;;1.48;;
78228;SDS011;74448;49.082;9.152;2023-12-20T06:59:07;2.20;;;0.80;;
78228;SDS011;74448;49.082;9.152;2023-12-20T07:01:34;2.00;;;1.17;;
78228;SDS011;74448;49.082;9.152;2023-12-20T07:04:00;2.83;;;1.35;;
78228;SDS011;74448;49.082;9.152;2023-12-20T07:06:27;2.75;;;1.30;;
78228;SDS011;74448;49.082;9.152;2023-12-20T07:08:54;2.17;;;1.10;;
78228;SDS011;74448;49.082;9.152;2023-12-20T07:11:20;2.67;;;1.30;;
78228;SDS011;74448;49.082;9.152;2023-12-20T07:13:47;2.35;;;1.50;;
78228;SDS011;74448;49.082;9.152;2023-12-20T07:16:13;1.80;;;1.13;;
78228;SDS011;74448;49.082;9.152;2023-12-20T07:18:40;1.70;;;1.05;;
78228;SDS011;74448;49.082;9.152;2023-12-20T07:21:07;3.00;;;1.60;;
78228;SDS011;74448;49.082;9.152;2023-12-20T07:23:34;2.97;;;1.20;;
78228;SDS011;74448;49.082;9.152;2023-12-20T07:26:01;2.97;;;1.20;;
78228;SDS011;74448;49.082;9.152;2023-12-20T07:28:27;3.70;;;1.60;;
78228;SDS011;74448;49.082;9.152;2023-12-20T07:30:54;2.03;;;1.23;;
78228;SDS011;74448;49.082;9.152;2023-12-20T07:33:20;2.40;;;1.30;;
78228;SDS011;74448;49.082;9.152;2023-12-20T07:35:48;1.80;;;1.10;;
78228;SDS011;74448;49.082;9.152;2023-12-20T07:38:15;3.40;;;1.15;;
78228;SDS011;74448;49.082;9.152;2023-12-20T07:40:41;2.88;;;1.40;;
78228;SDS011;74448;49.082;9.152;2023-12-20T07:43:08;1.98;;;1.10;;
78228;SDS011;74448;49.082;9.152;2023-12-20T07:45:35;2.28;;;1.27;;
78228;SDS011;74448;49.082;9.152;2023-12-20T07:48:01;1.77;;;1.27;;
78228;SDS011;74448;49.082;9.152;2023-12-20T07:50:28;1.70;;;1.02;;
78228;SDS011;74448;49.082;9.152;2023-12-20T07:52:55;2.88;;;1.83;;
78228;SDS011;74448;49.082;9.152;2023-12-20T07:55:22;2.28;;;1.15;;
78228;SDS011;74448;49.082;9.152;2023-12-20T07:57:49;2.05;;;1.25;;
78228;SDS011;74448;49.082;9.152;2023-12-20T08:00:15;2.88;;;1.30;;
78228;SDS011;74448;49.082;9.152;2023-12-20T08:05:09;3.00;;;1.60;;
78228;SDS011;74448;49.082;9.152;2023-12-20T08:07:35;2.03;;;0.88;;
78228;SDS011;74448;49.082;9.152;2023-12-20T08:10:02;2.30;;;1.20;;
78228;SDS011;74448;49.082;9.152;2023-12-20T08:12:29;1.60;;;1.02;;
78228;SDS011;74448;49.082;9.152;2023-12-20T08:14:56;3.22;;;1.55;;
78228;SDS011;74448;49.082;9.152;2023-12-20T08:17:23;1.90;;;1.02;;
78228;SDS011;74448;49.082;9.152;2023-12-20T08:19:50;1.58;;;0.93;;
78228;SDS011;74448;49.082;9.152;2023-12-20T08:22:17;2.10;;;1.15;;
78228;SDS011;74448;49.082;9.152;2023-12-20T08:24:44;2.25;;;1.25;;
78228;SDS011;74448;49.082;9.152;2023-12-20T08:27:11;1.88;;;1.15;;
78228;SDS011;74448;49.082;9.152;2023-12-20T08:29:37;2.05;;;1.17;;
78228;SDS011;74448;49.082;9.152;2023-12-20T08:32:04;2.60;;;1.25;;
78228;SDS011;74448;49.082;9.152;2023-12-20T08:34:31;1.83;;;1.20;;
78228;SDS011;74448;49.082;9.152;2023-12-20T08:39:24;2.20;;;0.90;;
78228;SDS011;74448;49.082;9.152;2023-12-20T08:41:51;1.67;;;1.10;;
78228;SDS011;74448;49.082;9.152;2023-12-20T08:44:17;1.58;;;1.10;;
78228;SDS011;74448;49.082;9.152;2023-12-20T08:46:44;3.38;;;1.40;;
78228;SDS011;74448;49.082;9.152;2023-12-20T08:49:10;2.10;;;1.00;;
78228;SDS011;74448;49.082;9.152;2023-12-20T08:54:07;1.95;;;1.00;;
78228;SDS011;74448;49.082;9.152;2023-12-20T08:56:34;1.90;;;1.23;;
78228;SDS011;74448;49.082;9.152;2023-12-20T08:59:01;2.00;;;0.80;;
78228;SDS011;74448;49.082;9.152;2023-12-20T09:01:28;2.15;;;0.90;;
78228;SDS011;74448;49.082;9.152;2023-12-20T09:03:54;2.83;;;1.10;;
78228;SDS011;74448;49.082;9.152;2023-12-20T09:06:21;1.52;;;0.93;;
78228;SDS011;74448;49.082;9.152;2023-12-20T09:08:48;3.00;;;1.23;;
78228;SDS011;74448;49.082;9.152;2023-12-20T09:11:14;3.15;;;0.93;;
78228;SDS011;74448;49.082;9.152;2023-12-20T09:16:08;1.80;;;0.88;;
78228;SDS011;74448;49.082;9.152;2023-12-20T09:18:34;1.92;;;0.88;;
78228;SDS011;74448;49.082;9.152;2023-12-20T09:21:01;1.27;;;0.73;;
78228;SDS011;74448;49.082;9.152;2023-12-20T09:25:55;2.30;;;1.00;;
78228;SDS011;74448;49.082;9.152;2023-12-20T09:28:23;2.38;;;1.00;;
78228;SDS011;74448;49.082;9.152;2023-12-20T09:30:50;3.20;;;1.10;;
78228;SDS011;74448;49.082;9.152;2023-12-20T09:35:43;2.05;;;1.23;;
78228;SDS011;74448;49.082;9.152;2023-12-20T09:38:10;1.77;;;0.98;;
78228;SDS011;74448;49.082;9.152;2023-12-20T09:40:38;2.25;;;1.10;;
78228;SDS011;74448;49.082;9.152;2023-12-20T09:43:11;2.40;;;1.10;;
78228;SDS011;74448;49.082;9.152;2023-12-20T09:45:42;2.33;;;1.02;;
78228;SDS011;74448;49.082;9.152;2023-12-20T09:48:12;1.92;;;0.82;;
78228;SDS011;74448;49.082;9.152;2023-12-20T09:50:40;2.85;;;0.93;;
78228;SDS011;74448;49.082;9.152;2023-12-20T09:53:12;3.85;;;0.88;;
78228;SDS011;74448;49.082;9.152;2023-12-20T09:55:42;2.00;;;1.00;;
78228;SDS011;74448;49.082;9.152;2023-12-20T09:58:08;1.08;;;0.68;;
78228;SDS011;74448;49.082;9.152;2023-12-20T10:00:35;1.92;;;0.93;;
78228;SDS011;74448;49.082;9.152;2023-12-20T10:03:02;2.05;;;1.25;;
78228;SDS011;74448;49.082;9.152;2023-12-20T10:05:31;2.15;;;1.10;;
78228;SDS011;74448;49.082;9.152;2023-12-20T10:07:59;2.53;;;0.82;;
78228;SDS011;74448;49.082;9.152;2023-12-20T10:10:28;1.17;;;0.90;;
78228;SDS011;74448;49.082;9.152;2023-12-20T10:13:10;1.90;;;1.00;;
78228;SDS011;74448;49.082;9.152;2023-12-20T10:15:39;2.20;;;0.82;;
78228;SDS011;74448;49.082;9.152;2023-12-20T10:18:08;1.40;;;0.73;;
78228;SDS011;74448;49.082;9.152;2023-12-20T10:20:35;1.60;;;0.70;;
78228;SDS011;74448;49.082;9.152;2023-12-20T10:23:02;2.22;;;0.98;;
78228;SDS011;74448;49.082;9.152;2023-12-20T10:28:09;3.55;;;1.08;;
78228;SDS011;74448;49.082;9.152;2023-12-20T10:30:38;2.70;;;0.90;;
78228;SDS011;74448;49.082;9.152;2023-12-20T10:33:06;1.67;;;0.90;;
78228;SDS011;74448;49.082;9.152;2023-12-20T10:35:38;1.98;;;0.85;;
78228;SDS011;74448;49.082;9.152;2023-12-20T10:38:10;1.63;;;0.90;;
78228;SDS011;74448;49.082;9.152;2023-12-20T10:40:38;1.48;;;0.63;;
78228;SDS011;74448;49.082;9.152;2023-12-20T10:43:04;1.25;;;0.68;;
78228;SDS011;74448;49.082;9.152;2023-12-20T10:45:32;1.48;;;0.63;;
78228;SDS011;74448;49.082;9.152;2023-12-20T10:50:26;2.30;;;0.90;;
78228;SDS011;74448;49.082;9.152;2023-12-20T10:52:54;1.92;;;0.70;;
78228;SDS011;74448;49.082;9.152;2023-12-20T10:55:25;1.67;;;0.80;;
78228;SDS011;74448;49.082;9.152;2023-12-20T10:58:08;2.20;;;0.82;;
78228;SDS011;74448;49.082;9.152;2023-12-20T11:00:39;1.52;;;0.82;;
78228;SDS011;74448;49.082;9.152;2023-12-20T11:03:11;1.85;;;0.90;;
78228;SDS011;74448;49.082;9.152;2023-12-20T11:14:25;1.30;;;0.82;;
78228;SDS011;74448;49.082;9.152;2023-12-20T11:17:10;1.55;;;0.93;;
78228;SDS011;74448;49.082;9.152;2023-12-20T11:22:19;3.75;;;1.10;;
78228;SDS011;74448;49.082;9.152;2023-12-20T11:24:47;1.40;;;0.90;;
78228;SDS011;74448;49.082;9.152;2023-12-20T11:27:16;2.65;;;1.05;;
78228;SDS011;74448;49.082;9.152;2023-12-20T11:29:43;2.63;;;1.05;;
78228;SDS011;74448;49.082;9.152;2023-12-20T11:34:51;2.90;;;0.90;;
78228;SDS011;74448;49.082;9.152;2023-12-20T11:37:20;3.33;;;0.70;;
78228;SDS011;74448;49.082;9.152;2023-12-20T11:40:05;1.55;;;0.93;;
78228;SDS011;74448;49.082;9.152;2023-12-20T11:42:39;1.33;;;0.85;;
78228;SDS011;74448;49.082;9.152;2023-12-20T11:45:10;1.50;;;0.65;;
78228;SDS011;74448;49.082;9.152;2023-12-20T11:47:45;1.80;;;0.93;;
78228;SDS011;74448;49.082;9.152;2023-12-20T11:50:13;3.38;;;0.85;;
78228;SDS011;74448;49.082;9.152;2023-12-20T11:52:40;3.17;;;0.90;;
78228;SDS011;74448;49.082;9.152;2023-12-20T11:55:07;2.63;;;1.50;;
78228;SDS011;74448;49.082;9.152;2023-12-20T11:57:34;3.17;;;0.85;;
78228;SDS011;74448;49.082;9.152;2023-12-20T12:00:05;1.88;;;0.77;;
78228;SDS011;74448;49.082;9.152;2023-12-20T12:02:32;2.08;;;0.90;;
78228;SDS011;74448;49.082;9.152;2023-12-20T12:05:02;1.92;;;0.93;;
78228;SDS011;74448;49.082;9.152;2023-12-20T12:09:58;1.83;;;1.02;;
78228;SDS011;74448;49.082;9.152;2023-12-20T12:12:25;1.77;;;1.00;;
78228;SDS011;74448;49.082;9.152;2023-12-20T12:14:54;1.25;;;0.50;;
78228;SDS011;74448;49.082;9.152;2023-12-20T12:17:23;1.95;;;1.10;;
78228;SDS011;74448;49.082;9.152;2023-12-20T12:19:49;2.00;;;0.80;;
78228;SDS011;74448;49.082;9.152;2023-12-20T12:22:16;1.75;;;0.98;;
78228;SDS011;74448;49.082;9.152;2023-12-20T12:24:44;1.95;;;0.73;;
78228;SDS011;74448;49.082;9.152;2023-12-20T12:27:12;2.63;;;0.90;;
78228;SDS011;74448;49.082;9.152;2023-12-20T12:29:39;2.58;;;1.00;;
78228;SDS011;74448;49.082;9.152;2023-12-20T12:32:07;2.05;;;0.80;;
78228;SDS011;74448;49.082;9.152;2023-12-20T12:34:35;3.05;;;0.90;;
78228;SDS011;74448;49.082;9.152;2023-12-20T12:37:06;2.45;;;1.10;;
78228;SDS011;74448;49.082;9.152;2023-12-20T12:39:33;2.42;;;1.02;;
78228;SDS011;74448;49.082;9.152;2023-12-20T12:42:00;2.30;;;1.00;;
78228;SDS011;74448;49.082;9.152;2023-12-20T12:44:27;3.15;;;1.00;;
78228;SDS011;74448;49.082;9.152;2023-12-20T12:46:53;2.47;;;0.80;;
78228;SDS011;74448;49.082;9.152;2023-12-20T12:49:20;3.22;;;0.85;;
78228;SDS011;74448;49.082;9.152;2023-12-20T12:51:48;2.08;;;1.52;;
78228;SDS011;74448;49.082;9.152;2023-12-20T12:56:42;3.83;;;0.98;;
78228;SDS011;74448;49.082;9.152;2023-12-20T12:59:10;7.65;;;1.45;;
78228;SDS011;74448;49.082;9.152;2023-12-20T13:01:37;6.80;;;1.52;;
78228;SDS011;74448;49.082;9.152;2023-12-20T13:04:05;6.60;;;1.42;;
78228;SDS011;74448;49.082;9.152;2023-12-20T13:06:37;5.22;;;1.80;;
78228;SDS011;74448;49.082;9.152;2023-12-20T13:09:04;4.55;;;1.25;;
78228;SDS011;74448;49.082;9.152;2023-12-20T13:11:31;6.18;;;1.50;;
78228;SDS011;74448;49.082;9.152;2023-12-20T13:13:57;5.93;;;1.80;;
78228;SDS011;74448;49.082;9.152;2023-12-20T13:16:24;8.43;;;1.50;;
78228;SDS011;74448;49.082;9.152;2023-12-20T13:21:17;6.05;;;1.02;;
78228;SDS011;74448;49.082;9.152;2023-12-20T13:23:44;8.73;;;3.05;;
78228;SDS011;74448;49.082;9.152;2023-12-20T13:26:11;4.57;;;1.55;;
78228;SDS011;74448;49.082;9.152;2023-12-20T13:28:37;8.30;;;1.83;;
78228;SDS011;74448;49.082;9.152;2023-12-20T13:33:31;4.28;;;1.25;;
78228;SDS011;74448;49.082;9.152;2023-12-20T13:35:57;6.43;;;1.40;;
78228;SDS011;74448;49.082;9.152;2023-12-20T13:38:24;5.07;;;1.48;;
78228;SDS011;74448;49.082;9.152;2023-12-20T13:40:51;7.68;;;1.85;;
78228;SDS011;74448;49.082;9.152;2023-12-20T13:43:17;6.78;;;1.60;;
78228;SDS011;74448;49.082;9.152;2023-12-20T13:45:47;6.05;;;1.48;;
78228;SDS011;74448;49.082;9.152;2023-12-20T13:48:14;7.75;;;1.45;;
78228;SDS011;74448;49.082;9.152;2023-12-20T13:50:41;7.32;;;2.00;;
78228;SDS011;74448;49.082;9.152;2023-12-20T13:53:07;4.78;;;1.35;;
78228;SDS011;74448;49.082;9.152;2023-12-20T13:55:34;4.97;;;1.42;;
78228;SDS011;74448;49.082;9.152;2023-12-20T14:00:28;4.20;;;1.17;;
78228;SDS011;74448;49.082;9.152;2023-12-20T14:02:54;3.63;;;1.15;;
78228;SDS011;74448;49.082;9.152;2023-12-20T14:05:22;5.10;;;1.30;;
78228;SDS011;74448;49.082;9.152;2023-12-20T14:07:54;3.65;;;1.23;;
78228;SDS011;74448;49.082;9.152;2023-12-20T14:10:24;2.80;;;1.08;;
78228;SDS011;74448;49.082;9.152;2023-12-20T14:12:55;5.07;;;1.27;;
78228;SDS011;74448;49.082;9.152;2023-12-20T14:15:22;3.78;;;1.33;;
78228;SDS011;74448;49.082;9.152;2023-12-20T14:17:52;2.42;;;1.10;;
78228;SDS011;74448;49.082;9.152;2023-12-20T14:20:19;4.25;;;1.50;;
78228;SDS011;74448;49.082;9.152;2023-12-20T14:22:45;5.63;;;1.83;;
78228;SDS011;74448;49.082;9.152;2023-12-20T14:25:13;5.22;;;1.60;;
78228;SDS011;74448;49.082;9.152;2023-12-20T14:27:41;4.25;;;1.95;;
78228;SDS011;74448;49.082;9.152;2023-12-20T14:30:11;5.03;;;1.48;;
78228;SDS011;74448;49.082;9.152;2023-12-20T14:32:40;7.45;;;1.70;;
78228;SDS011;74448;49.082;9.152;2023-12-20T14:35:07;3.97;;;1.20;;
78228;SDS011;74448;49.082;9.152;2023-12-20T14:37:35;4.85;;;1.60;;
78228;SDS011;74448;49.082;9.152;2023-12-20T14:40:07;4.60;;;1.20;;
78228;SDS011;74448;49.082;9.152;2023-12-20T14:42:37;4.80;;;1.42;;
78228;SDS011;74448;49.082;9.152;2023-12-20T14:45:04;4.63;;;1.25;;
78228;SDS011;74448;49.082;9.152;2023-12-20T14:47:31;4.75;;;1.23;;
78228;SDS011;74448;49.082;9.152;2023-12-20T14:49:57;2.45;;;1.10;;
78228;SDS011;74448;49.082;9.152;2023-12-20T14:52:24;2.50;;;1.48;;
78228;SDS011;74448;49.082;9.152;2023-12-20T14:57:17;5.15;;;1.38;;
78228;SDS011;74448;49.082;9.152;2023-12-20T14:59:44;2.80;;;1.20;;
78228;SDS011;74448;49.082;9.152;2023-12-20T15:02:11;6.30;;;1.55;;
78228;SDS011;74448;49.082;9.152;2023-12-20T15:07:05;3.13;;;1.00;;
78228;SDS011;74448;49.082;9.152;2023-12-20T15:09:32;2.08;;;1.00;;
78228;SDS011;74448;49.082;9.152;2023-12-20T15:11:59;3.05;;;0.98;;
78228;SDS011;74448;49.082;9.152;2023-12-20T15:14:26;5.40;;;1.52;;
78228;SDS011;74448;49.082;9.152;2023-12-20T15:16:53;3.53;;;1.25;;
78228;SDS011;74448;49.082;9.152;2023-12-20T15:19:19;6.78;;;1.98;;
78228;SDS011;74448;49.082;9.152;2023-12-20T15:24:13;3.70;;;1.20;;
78228;SDS011;74448;49.082;9.152;2023-12-20T15:26:46;2.72;;;1.50;;
78228;SDS011;74448;49.082;9.152;2023-12-20T15:29:13;3.90;;;1.27;;
78228;SDS011;74448;49.082;9.152;2023-12-20T15:31:44;4.82;;;1.10;;
78228;SDS011;74448;49.082;9.152;2023-12-20T15:34:15;5.57;;;2.60;;
78228;SDS011;74448;49.082;9.152;2023-12-20T15:36:42;3.42;;;1.23;;
78228;SDS011;74448;49.082;9.152;2023-12-20T15:39:10;4.03;;;0.98;;
78228;SDS011;74448;49.082;9.152;2023-12-20T15:41:36;2.70;;;0.88;;
78228;SDS011;74448;49.082;9.152;2023-12-20T15:44:03;1.80;;;1.10;;
78228;SDS011;74448;49.082;9.152;2023-12-20T15:46:30;2.75;;;1.00;;
78228;SDS011;74448;49.082;9.152;2023-12-20T15:51:23;2.35;;;1.10;;
78228;SDS011;74448;49.082;9.152;2023-12-20T15:53:51;4.07;;;1.77;;
78228;SDS011;74448;49.082;9.152;2023-12-20T15:56:17;1.90;;;0.90;;
78228;SDS011;74448;49.082;9.152;2023-12-20T15:58:45;3.08;;;1.15;;
78228;SDS011;74448;49.082;9.152;2023-12-20T16:01:14;5.88;;;1.23;;